sensor_id;sensor_type;location;lat;lon;timestamp;pressure;altitude;pressure_sealevel;temperature;humidity
69971;BME280;57301;50.328;8.542;2022-07-22T00:00:42;98936.22;;;16.84;82.07
69971;BME280;57301;50.328;8.542;2022-07-22T00:03:08;98946.66;;;17.02;81.48
69971;BME280;57301;50.328;8.542;2022-07-22T00:05:35;98930.94;;;17.06;81.13
69971;BME280;57301;50.328;8.542;2022-07-22T00:08:02;98934.75;;;16.97;81.46
69971;BME280;57301;50.328;8.542;2022-07-22T00:10:28;98934.56;;;16.98;81.38
69971;BME280;57301;50.328;8.542;2022-07-22T00:12:55;98923.44;;;17.16;80.73
69971;BME280;57301;50.328;8.542;2022-07-22T00:15:21;98935.41;;;17.43;79.70
69971;BME280;57301;50.328;8.542;2022-07-22T00:17:48;98938.56;;;17.17;79.91
69971;BME280;57301;50.328;8.542;2022-07-22T00:20:14;98933.47;;;17.37;79.48
69971;BME280;57301;50.328;8.542;2022-07-22T00:22:41;98939.50;;;17.54;78.51
69971;BME280;57301;50.328;8.542;2022-07-22T00:25:08;98924.44;;;17.59;78.41
69971;BME280;57301;50.328;8.542;2022-07-22T00:27:36;98930.31;;;17.33;79.30
69971;BME280;57301;50.328;8.542;2022-07-22T00:30:03;98928.34;;;17.57;78.53
69971;BME280;57301;50.328;8.542;2022-07-22T00:32:30;98929.38;;;17.56;78.54
69971;BME280;57301;50.328;8.542;2022-07-22T00:34:56;98928.34;;;17.71;78.07
69971;BME280;57301;50.328;8.542;2022-07-22T00:37:23;98928.84;;;17.96;77.36
69971;BME280;57301;50.328;8.542;2022-07-22T00:39:49;98932.03;;;18.00;76.98
69971;BME280;57301;50.328;8.542;2022-07-22T00:42:16;98930.03;;;18.09;76.05
69971;BME280;57301;50.328;8.542;2022-07-22T00:44:43;98925.97;;;17.98;75.77
69971;BME280;57301;50.328;8.542;2022-07-22T00:47:10;98923.66;;;17.95;76.39
69971;BME280;57301;50.328;8.542;2022-07-22T00:49:37;98905.88;;;18.01;75.50
69971;BME280;57301;50.328;8.542;2022-07-22T00:52:04;98909.16;;;18.17;74.61
69971;BME280;57301;50.328;8.542;2022-07-22T00:54:32;98908.25;;;18.10;74.75
69971;BME280;57301;50.328;8.542;2022-07-22T00:56:59;98906.97;;;18.06;74.88
69971;BME280;57301;50.328;8.542;2022-07-22T00:59:25;98907.66;;;17.93;75.37
69971;BME280;57301;50.328;8.542;2022-07-22T01:01:52;98910.53;;;17.92;74.76
69971;BME280;57301;50.328;8.542;2022-07-22T01:04:19;98906.38;;;17.89;74.96
69971;BME280;57301;50.328;8.542;2022-07-22T01:06:46;98909.00;;;17.68;75.63
69971;BME280;57301;50.328;8.542;2022-07-22T01:09:13;98911.88;;;17.81;75.27
69971;BME280;57301;50.328;8.542;2022-07-22T01:11:40;98903.69;;;17.60;76.20
69971;BME280;57301;50.328;8.542;2022-07-22T01:14:07;98910.50;;;17.56;76.19
69971;BME280;57301;50.328;8.542;2022-07-22T01:16:34;98905.66;;;17.36;76.99
69971;BME280;57301;50.328;8.542;2022-07-22T01:19:01;98908.47;;;17.28;77.45
69971;BME280;57301;50.328;8.542;2022-07-22T01:21:27;98896.84;;;17.57;76.78
69971;BME280;57301;50.328;8.542;2022-07-22T01:23:54;98900.84;;;17.46;77.07
69971;BME280;57301;50.328;8.542;2022-07-22T01:26:20;98905.03;;;17.34;77.18
69971;BME280;57301;50.328;8.542;2022-07-22T01:28:47;98901.97;;;17.23;78.00
69971;BME280;57301;50.328;8.542;2022-07-22T01:31:14;98903.63;;;17.24;78.32
69971;BME280;57301;50.328;8.542;2022-07-22T01:33:40;98906.25;;;17.32;77.55
69971;BME280;57301;50.328;8.542;2022-07-22T01:36:07;98910.91;;;17.38;77.22
69971;BME280;57301;50.328;8.542;2022-07-22T01:38:34;98908.84;;;17.40;77.25
69971;BME280;57301;50.328;8.542;2022-07-22T01:41:00;98909.41;;;17.35;77.67
69971;BME280;57301;50.328;8.542;2022-07-22T01:43:27;98906.25;;;17.32;78.15
69971;BME280;57301;50.328;8.542;2022-07-22T01:45:54;98901.78;;;17.24;78.18
69971;BME280;57301;50.328;8.542;2022-07-22T01:48:21;98896.78;;;17.21;78.39
69971;BME280;57301;50.328;8.542;2022-07-22T01:50:49;98903.19;;;17.20;78.69
69971;BME280;57301;50.328;8.542;2022-07-22T01:53:16;98903.00;;;17.22;78.80
69971;BME280;57301;50.328;8.542;2022-07-22T01:55:43;98897.97;;;17.18;78.68
69971;BME280;57301;50.328;8.542;2022-07-22T01:58:09;98899.56;;;17.13;79.23
69971;BME280;57301;50.328;8.542;2022-07-22T02:00:36;98898.34;;;17.15;79.38
69971;BME280;57301;50.328;8.542;2022-07-22T02:03:03;98895.72;;;17.37;78.72
69971;BME280;57301;50.328;8.542;2022-07-22T02:05:30;98896.75;;;17.36;78.56
69971;BME280;57301;50.328;8.542;2022-07-22T02:08:02;98890.16;;;17.24;78.63
69971;BME280;57301;50.328;8.542;2022-07-22T02:10:29;98895.19;;;17.27;78.66
69971;BME280;57301;50.328;8.542;2022-07-22T02:12:57;98888.88;;;17.05;79.01
69971;BME280;57301;50.328;8.542;2022-07-22T02:15:23;98899.16;;;16.86;79.79
69971;BME280;57301;50.328;8.542;2022-07-22T02:17:50;98894.03;;;16.16;83.12
69971;BME280;57301;50.328;8.542;2022-07-22T02:20:17;98900.28;;;15.85;85.17
69971;BME280;57301;50.328;8.542;2022-07-22T02:22:43;98899.22;;;16.18;83.61
69971;BME280;57301;50.328;8.542;2022-07-22T02:25:10;98892.09;;;15.79;85.10
69971;BME280;57301;50.328;8.542;2022-07-22T02:27:37;98904.13;;;15.52;86.85
69971;BME280;57301;50.328;8.542;2022-07-22T02:30:05;98905.06;;;15.36;87.91
69971;BME280;57301;50.328;8.542;2022-07-22T02:32:32;98895.94;;;15.45;87.88
69971;BME280;57301;50.328;8.542;2022-07-22T02:34:59;98901.16;;;16.09;85.08
69971;BME280;57301;50.328;8.542;2022-07-22T02:37:25;98905.13;;;16.13;84.09
69971;BME280;57301;50.328;8.542;2022-07-22T02:39:52;98908.06;;;15.80;85.10
69971;BME280;57301;50.328;8.542;2022-07-22T02:42:18;98905.41;;;15.72;86.10
69971;BME280;57301;50.328;8.542;2022-07-22T02:44:45;98901.97;;;15.47;86.82
69971;BME280;57301;50.328;8.542;2022-07-22T02:47:12;98904.13;;;15.52;87.37
69971;BME280;57301;50.328;8.542;2022-07-22T02:49:38;98901.09;;;15.63;86.54
69971;BME280;57301;50.328;8.542;2022-07-22T02:52:05;98898.50;;;16.01;84.59
69971;BME280;57301;50.328;8.542;2022-07-22T02:54:31;98900.44;;;16.15;84.08
69971;BME280;57301;50.328;8.542;2022-07-22T02:56:58;98907.84;;;15.90;84.65
69971;BME280;57301;50.328;8.542;2022-07-22T02:59:24;98897.97;;;16.05;84.72
69971;BME280;57301;50.328;8.542;2022-07-22T03:01:51;98907.22;;;15.80;85.68
69971;BME280;57301;50.328;8.542;2022-07-22T03:04:17;98914.19;;;15.66;86.54
69971;BME280;57301;50.328;8.542;2022-07-22T03:06:45;98914.19;;;15.66;86.27
69971;BME280;57301;50.328;8.542;2022-07-22T03:09:11;98917.97;;;15.80;85.89
69971;BME280;57301;50.328;8.542;2022-07-22T03:11:38;98918.88;;;15.72;86.27
69971;BME280;57301;50.328;8.542;2022-07-22T03:14:04;98919.00;;;15.79;86.22
69971;BME280;57301;50.328;8.542;2022-07-22T03:16:31;98925.53;;;15.84;85.93
69971;BME280;57301;50.328;8.542;2022-07-22T03:18:57;98918.88;;;15.72;86.59
69971;BME280;57301;50.328;8.542;2022-07-22T03:21:25;98921.09;;;16.37;84.40
69971;BME280;57301;50.328;8.542;2022-07-22T03:23:51;98914.44;;;16.33;83.57
69971;BME280;57301;50.328;8.542;2022-07-22T03:26:20;98921.59;;;16.64;82.49
69971;BME280;57301;50.328;8.542;2022-07-22T03:28:47;98920.72;;;16.86;81.91
69971;BME280;57301;50.328;8.542;2022-07-22T03:31:13;98910.31;;;16.98;80.88
69971;BME280;57301;50.328;8.542;2022-07-22T03:33:40;98914.88;;;16.98;80.70
69971;BME280;57301;50.328;8.542;2022-07-22T03:36:07;98917.03;;;17.17;79.84
69971;BME280;57301;50.328;8.542;2022-07-22T03:38:35;98919.25;;;16.99;79.86
69971;BME280;57301;50.328;8.542;2022-07-22T03:41:02;98920.84;;;17.23;79.51
69971;BME280;57301;50.328;8.542;2022-07-22T03:43:29;98927.34;;;17.13;79.31
69971;BME280;57301;50.328;8.542;2022-07-22T03:45:56;98931.47;;;16.86;81.03
69971;BME280;57301;50.328;8.542;2022-07-22T03:48:22;98922.22;;;17.04;80.54
69971;BME280;57301;50.328;8.542;2022-07-22T03:50:49;98931.59;;;16.93;80.65
69971;BME280;57301;50.328;8.542;2022-07-22T03:53:16;98918.78;;;16.57;82.08
69971;BME280;57301;50.328;8.542;2022-07-22T03:55:42;98939.94;;;16.37;83.32
69971;BME280;57301;50.328;8.542;2022-07-22T03:58:09;98933.53;;;16.38;83.63
69971;BME280;57301;50.328;8.542;2022-07-22T04:00:35;98935.59;;;16.82;81.78
69971;BME280;57301;50.328;8.542;2022-07-22T04:03:02;98929.28;;;17.34;80.02
69971;BME280;57301;50.328;8.542;2022-07-22T04:05:28;98931.13;;;17.49;78.85
69971;BME280;57301;50.328;8.542;2022-07-22T04:07:55;98932.63;;;17.51;78.72
69971;BME280;57301;50.328;8.542;2022-07-22T04:10:25;98923.53;;;17.52;78.49
69971;BME280;57301;50.328;8.542;2022-07-22T04:12:51;98920.63;;;17.68;77.95
69971;BME280;57301;50.328;8.542;2022-07-22T04:15:17;98913.16;;;17.70;77.34
69971;BME280;57301;50.328;8.542;2022-07-22T04:17:45;98928.06;;;17.81;77.31
69971;BME280;57301;50.328;8.542;2022-07-22T04:20:12;98926.91;;;17.90;76.84
69971;BME280;57301;50.328;8.542;2022-07-22T04:22:39;98923.09;;;17.99;76.24
69971;BME280;57301;50.328;8.542;2022-07-22T04:25:06;98911.47;;;17.99;75.64
69971;BME280;57301;50.328;8.542;2022-07-22T04:27:33;98924.75;;;18.01;75.09
69971;BME280;57301;50.328;8.542;2022-07-22T04:30:00;98921.03;;;18.02;75.70
69971;BME280;57301;50.328;8.542;2022-07-22T04:32:27;98919.91;;;18.11;75.84
69971;BME280;57301;50.328;8.542;2022-07-22T04:34:53;98918.44;;;18.30;75.22
69971;BME280;57301;50.328;8.542;2022-07-22T04:37:20;98907.16;;;18.26;75.00
69971;BME280;57301;50.328;8.542;2022-07-22T04:39:46;98922.53;;;18.25;74.91
69971;BME280;57301;50.328;8.542;2022-07-22T04:42:13;98912.31;;;18.42;74.01
69971;BME280;57301;50.328;8.542;2022-07-22T04:44:40;98909.66;;;18.49;73.63
69971;BME280;57301;50.328;8.542;2022-07-22T04:47:06;98914.34;;;18.62;72.94
69971;BME280;57301;50.328;8.542;2022-07-22T04:49:34;98914.63;;;18.67;72.33
69971;BME280;57301;50.328;8.542;2022-07-22T04:52:01;98920.16;;;18.80;71.65
69971;BME280;57301;50.328;8.542;2022-07-22T04:54:28;98918.91;;;18.83;71.91
69971;BME280;57301;50.328;8.542;2022-07-22T04:56:55;98907.88;;;18.84;70.99
69971;BME280;57301;50.328;8.542;2022-07-22T04:59:21;98915.16;;;18.84;71.26
69971;BME280;57301;50.328;8.542;2022-07-22T05:01:49;98903.63;;;18.96;70.96
69971;BME280;57301;50.328;8.542;2022-07-22T05:04:16;98893.03;;;19.01;70.34
69971;BME280;57301;50.328;8.542;2022-07-22T05:06:43;98897.09;;;19.19;69.98
69971;BME280;57301;50.328;8.542;2022-07-22T05:09:09;98889.31;;;19.37;70.18
69971;BME280;57301;50.328;8.542;2022-07-22T05:11:36;98890.63;;;19.54;69.30
69971;BME280;57301;50.328;8.542;2022-07-22T05:14:03;98896.19;;;19.40;69.08
69971;BME280;57301;50.328;8.542;2022-07-22T05:16:29;98888.72;;;19.42;68.63
69971;BME280;57301;50.328;8.542;2022-07-22T05:18:56;98888.94;;;19.47;68.69
69971;BME280;57301;50.328;8.542;2022-07-22T05:21:23;98893.13;;;19.49;69.02
69971;BME280;57301;50.328;8.542;2022-07-22T05:23:49;98896.13;;;19.68;67.95
69971;BME280;57301;50.328;8.542;2022-07-22T05:26:16;98896.16;;;19.74;67.08
69971;BME280;57301;50.328;8.542;2022-07-22T05:28:43;98896.44;;;19.93;66.19
69971;BME280;57301;50.328;8.542;2022-07-22T05:31:09;98902.91;;;19.98;66.47
69971;BME280;57301;50.328;8.542;2022-07-22T05:33:36;98912.13;;;20.24;65.32
69971;BME280;57301;50.328;8.542;2022-07-22T05:36:02;98912.22;;;20.50;64.22
69971;BME280;57301;50.328;8.542;2022-07-22T05:38:32;98911.78;;;20.53;63.94
69971;BME280;57301;50.328;8.542;2022-07-22T05:40:58;98907.13;;;20.34;63.72
69971;BME280;57301;50.328;8.542;2022-07-22T05:43:25;98905.25;;;20.34;64.54
69971;BME280;57301;50.328;8.542;2022-07-22T05:45:52;98901.59;;;21.60;61.24
69971;BME280;57301;50.328;8.542;2022-07-22T05:48:18;98907.13;;;23.11;54.14
69971;BME280;57301;50.328;8.542;2022-07-22T05:50:45;98904.03;;;24.71;50.54
69971;BME280;57301;50.328;8.542;2022-07-22T05:53:11;98904.72;;;25.72;47.25
69971;BME280;57301;50.328;8.542;2022-07-22T05:55:38;98905.31;;;26.93;44.57
69971;BME280;57301;50.328;8.542;2022-07-22T05:58:05;98904.22;;;27.89;42.06
69971;BME280;57301;50.328;8.542;2022-07-22T06:00:31;98903.25;;;28.27;40.50
69971;BME280;57301;50.328;8.542;2022-07-22T06:02:58;98897.88;;;28.96;38.85
69971;BME280;57301;50.328;8.542;2022-07-22T06:05:25;98911.34;;;29.40;37.83
69971;BME280;57301;50.328;8.542;2022-07-22T06:08:03;98912.53;;;27.99;40.24
69971;BME280;57301;50.328;8.542;2022-07-22T06:10:30;98915.84;;;26.39;43.22
69971;BME280;57301;50.328;8.542;2022-07-22T06:12:57;98927.00;;;25.17;45.65
69971;BME280;57301;50.328;8.542;2022-07-22T06:15:23;98922.25;;;22.50;52.18
69971;BME280;57301;50.328;8.542;2022-07-22T06:17:52;98915.63;;;23.21;51.54
69971;BME280;57301;50.328;8.542;2022-07-22T06:20:19;98909.41;;;21.94;53.98
69971;BME280;57301;50.328;8.542;2022-07-22T06:22:45;98906.41;;;22.72;53.01
69971;BME280;57301;50.328;8.542;2022-07-22T06:25:12;98914.63;;;22.66;53.15
69971;BME280;57301;50.328;8.542;2022-07-22T06:27:58;98907.22;;;23.41;52.12
69971;BME280;57301;50.328;8.542;2022-07-22T06:30:25;98899.88;;;24.69;48.91
69971;BME280;57301;50.328;8.542;2022-07-22T06:32:53;98897.69;;;25.64;45.91
69971;BME280;57301;50.328;8.542;2022-07-22T06:35:22;98904.19;;;27.45;42.12
69971;BME280;57301;50.328;8.542;2022-07-22T06:37:51;98894.97;;;28.22;39.96
69971;BME280;57301;50.328;8.542;2022-07-22T06:40:33;98900.34;;;28.93;38.22
69971;BME280;57301;50.328;8.542;2022-07-22T06:43:01;98900.19;;;28.45;38.12
69971;BME280;57301;50.328;8.542;2022-07-22T06:45:29;98893.34;;;27.55;40.91
69971;BME280;57301;50.328;8.542;2022-07-22T06:47:55;98892.03;;;27.02;41.58
69971;BME280;57301;50.328;8.542;2022-07-22T06:50:22;98888.41;;;26.17;43.27
69971;BME280;57301;50.328;8.542;2022-07-22T06:52:50;98890.31;;;26.17;43.76
69971;BME280;57301;50.328;8.542;2022-07-22T06:55:16;98898.16;;;26.42;42.73
69971;BME280;57301;50.328;8.542;2022-07-22T06:57:43;98887.47;;;26.12;43.41
69971;BME280;57301;50.328;8.542;2022-07-22T07:00:10;98890.59;;;25.75;43.68
69971;BME280;57301;50.328;8.542;2022-07-22T07:02:37;98889.94;;;25.21;46.10
69971;BME280;57301;50.328;8.542;2022-07-22T07:05:04;98890.03;;;24.79;46.47
69971;BME280;57301;50.328;8.542;2022-07-22T07:07:30;98892.25;;;25.53;45.69
69971;BME280;57301;50.328;8.542;2022-07-22T07:09:58;98888.00;;;25.57;44.29
69971;BME280;57301;50.328;8.542;2022-07-22T07:12:25;98882.50;;;26.54;43.84
69971;BME280;57301;50.328;8.542;2022-07-22T07:14:52;98885.94;;;27.34;41.49
69971;BME280;57301;50.328;8.542;2022-07-22T07:17:39;98881.53;;;26.77;42.50
69971;BME280;57301;50.328;8.542;2022-07-22T07:20:06;98885.56;;;26.58;42.13
69971;BME280;57301;50.328;8.542;2022-07-22T07:22:34;98880.59;;;26.55;42.72
69971;BME280;57301;50.328;8.542;2022-07-22T07:25:06;98886.06;;;26.55;42.46
69971;BME280;57301;50.328;8.542;2022-07-22T07:27:49;98891.56;;;26.71;43.30
69971;BME280;57301;50.328;8.542;2022-07-22T07:30:16;98880.88;;;26.24;43.22
69971;BME280;57301;50.328;8.542;2022-07-22T07:32:43;98877.72;;;26.16;43.79
69971;BME280;57301;50.328;8.542;2022-07-22T07:35:09;98882.22;;;25.41;44.94
69971;BME280;57301;50.328;8.542;2022-07-22T07:37:36;98868.56;;;25.41;45.70
69971;BME280;57301;50.328;8.542;2022-07-22T07:40:04;98879.63;;;25.00;45.81
69971;BME280;57301;50.328;8.542;2022-07-22T07:42:31;98878.88;;;25.39;46.79
69971;BME280;57301;50.328;8.542;2022-07-22T07:44:57;98870.41;;;26.05;44.92
69971;BME280;57301;50.328;8.542;2022-07-22T07:47:24;98870.09;;;27.57;40.67
69971;BME280;57301;50.328;8.542;2022-07-22T07:49:50;98861.50;;;28.84;37.28
69971;BME280;57301;50.328;8.542;2022-07-22T07:52:17;98855.88;;;28.96;37.22
69971;BME280;57301;50.328;8.542;2022-07-22T07:54:44;98864.72;;;28.38;39.41
69971;BME280;57301;50.328;8.542;2022-07-22T07:57:31;98864.50;;;28.18;39.76
69971;BME280;57301;50.328;8.542;2022-07-22T08:00:00;98867.56;;;29.18;36.72
69971;BME280;57301;50.328;8.542;2022-07-22T08:02:27;98860.88;;;29.09;37.18
69971;BME280;57301;50.328;8.542;2022-07-22T08:04:54;98859.75;;;30.61;34.20
69971;BME280;57301;50.328;8.542;2022-07-22T08:07:24;98857.56;;;30.63;33.88
69971;BME280;57301;50.328;8.542;2022-07-22T08:09:52;98850.56;;;29.26;36.96
69971;BME280;57301;50.328;8.542;2022-07-22T08:12:38;98856.81;;;29.11;37.56
69971;BME280;57301;50.328;8.542;2022-07-22T08:15:05;98864.31;;;29.94;36.24
69971;BME280;57301;50.328;8.542;2022-07-22T08:17:34;98857.06;;;30.71;33.72
69971;BME280;57301;50.328;8.542;2022-07-22T08:20:03;98864.06;;;27.77;37.97
69971;BME280;57301;50.328;8.542;2022-07-22T08:22:30;98850.63;;;28.30;38.98
69971;BME280;57301;50.328;8.542;2022-07-22T08:24:57;98852.28;;;28.31;38.41
69971;BME280;57301;50.328;8.542;2022-07-22T08:27:23;98846.91;;;29.10;36.65
69971;BME280;57301;50.328;8.542;2022-07-22T08:29:50;98848.69;;;26.77;39.92
69971;BME280;57301;50.328;8.542;2022-07-22T08:32:16;98843.41;;;29.78;35.30
69971;BME280;57301;50.328;8.542;2022-07-22T08:34:43;98845.63;;;28.86;36.37
69971;BME280;57301;50.328;8.542;2022-07-22T08:37:10;98835.09;;;29.10;35.96
69971;BME280;57301;50.328;8.542;2022-07-22T08:39:36;98843.59;;;27.63;38.36
69971;BME280;57301;50.328;8.542;2022-07-22T08:42:03;98834.47;;;29.03;36.64
69971;BME280;57301;50.328;8.542;2022-07-22T08:44:33;98831.91;;;29.33;35.45
69971;BME280;57301;50.328;8.542;2022-07-22T08:47:00;98821.41;;;29.93;34.62
69971;BME280;57301;50.328;8.542;2022-07-22T08:49:47;98826.00;;;29.09;36.33
69971;BME280;57301;50.328;8.542;2022-07-22T08:52:14;98827.78;;;28.51;37.94
69971;BME280;57301;50.328;8.542;2022-07-22T08:54:40;98837.31;;;28.11;39.58
69971;BME280;57301;50.328;8.542;2022-07-22T08:57:07;98826.38;;;26.35;41.20
69971;BME280;57301;50.328;8.542;2022-07-22T08:59:51;98831.88;;;25.37;43.00
69971;BME280;57301;50.328;8.542;2022-07-22T09:02:19;98835.63;;;26.17;43.12
69971;BME280;57301;50.328;8.542;2022-07-22T09:05:01;98832.06;;;28.10;39.64
69971;BME280;57301;50.328;8.542;2022-07-22T09:07:49;98830.75;;;28.82;38.09
69971;BME280;57301;50.328;8.542;2022-07-22T09:10:18;98825.38;;;27.08;40.93
69971;BME280;57301;50.328;8.542;2022-07-22T09:12:56;98831.41;;;26.93;40.08
69971;BME280;57301;50.328;8.542;2022-07-22T09:15:33;98825.00;;;27.04;39.85
69971;BME280;57301;50.328;8.542;2022-07-22T09:18:03;98828.75;;;28.72;37.99
69971;BME280;57301;50.328;8.542;2022-07-22T09:20:34;98823.09;;;28.20;36.87
69971;BME280;57301;50.328;8.542;2022-07-22T09:23:01;98824.94;;;27.82;37.72
69971;BME280;57301;50.328;8.542;2022-07-22T09:25:35;98825.44;;;27.57;39.92
69971;BME280;57301;50.328;8.542;2022-07-22T09:30:38;98820.16;;;28.96;36.85
69971;BME280;57301;50.328;8.542;2022-07-22T09:33:07;98822.81;;;29.23;36.00
69971;BME280;57301;50.328;8.542;2022-07-22T09:35:35;98817.59;;;28.84;35.86
69971;BME280;57301;50.328;8.542;2022-07-22T09:38:08;98815.34;;;28.76;36.81
69971;BME280;57301;50.328;8.542;2022-07-22T09:40:42;98817.13;;;27.96;38.27
69971;BME280;57301;50.328;8.542;2022-07-22T09:43:11;98817.59;;;27.44;38.98
69971;BME280;57301;50.328;8.542;2022-07-22T09:45:56;98808.00;;;27.68;38.29
69971;BME280;57301;50.328;8.542;2022-07-22T09:48:24;98810.13;;;28.37;38.93
69971;BME280;57301;50.328;8.542;2022-07-22T09:50:52;98812.94;;;28.47;36.67
69971;BME280;57301;50.328;8.542;2022-07-22T09:53:21;98806.69;;;29.47;36.35
69971;BME280;57301;50.328;8.542;2022-07-22T09:55:49;98808.50;;;29.93;36.71
69971;BME280;57301;50.328;8.542;2022-07-22T09:58:16;98805.44;;;29.80;34.99
69971;BME280;57301;50.328;8.542;2022-07-22T10:00:43;98802.91;;;29.00;36.51
69971;BME280;57301;50.328;8.542;2022-07-22T10:03:13;98792.28;;;30.02;34.71
69971;BME280;57301;50.328;8.542;2022-07-22T10:05:42;98788.97;;;29.85;35.26
69971;BME280;57301;50.328;8.542;2022-07-22T10:08:09;98800.78;;;27.57;37.61
69971;BME280;57301;50.328;8.542;2022-07-22T10:10:38;98786.53;;;28.41;37.40
69971;BME280;57301;50.328;8.542;2022-07-22T10:13:07;98785.13;;;29.13;37.88
69971;BME280;57301;50.328;8.542;2022-07-22T10:15:35;98786.75;;;28.72;37.09
69971;BME280;57301;50.328;8.542;2022-07-22T10:18:06;98774.44;;;29.27;36.34
69971;BME280;57301;50.328;8.542;2022-07-22T10:20:35;98776.56;;;29.04;37.06
69971;BME280;57301;50.328;8.542;2022-07-22T10:23:04;98767.94;;;29.48;36.94
69971;BME280;57301;50.328;8.542;2022-07-22T10:25:49;98768.06;;;29.79;35.76
69971;BME280;57301;50.328;8.542;2022-07-22T10:28:24;98762.81;;;29.82;35.41
69971;BME280;57301;50.328;8.542;2022-07-22T10:30:51;98762.91;;;30.33;35.22
69971;BME280;57301;50.328;8.542;2022-07-22T10:33:20;98763.97;;;30.47;35.19
69971;BME280;57301;50.328;8.542;2022-07-22T10:35:54;98760.22;;;31.34;33.35
69971;BME280;57301;50.328;8.542;2022-07-22T10:38:21;98757.69;;;31.92;32.87
69971;BME280;57301;50.328;8.542;2022-07-22T10:40:49;98759.97;;;32.53;30.71
69971;BME280;57301;50.328;8.542;2022-07-22T10:43:30;98758.00;;;31.85;32.76
69971;BME280;57301;50.328;8.542;2022-07-22T10:45:57;98752.66;;;32.67;30.93
69971;BME280;57301;50.328;8.542;2022-07-22T10:48:44;98752.19;;;32.84;30.96
69971;BME280;57301;50.328;8.542;2022-07-22T10:56:28;98752.19;;;32.84;30.75
69971;BME280;57301;50.328;8.542;2022-07-22T11:01:38;98741.66;;;29.88;36.55
69971;BME280;57301;50.328;8.542;2022-07-22T11:04:10;98744.78;;;31.33;32.91
69971;BME280;57301;50.328;8.542;2022-07-22T11:06:43;98743.59;;;30.43;34.74
69971;BME280;57301;50.328;8.542;2022-07-22T11:09:12;98745.31;;;31.84;33.00
69971;BME280;57301;50.328;8.542;2022-07-22T11:14:21;98738.25;;;29.50;34.60
69971;BME280;57301;50.328;8.542;2022-07-22T11:16:56;98718.03;;;30.17;34.12
69971;BME280;57301;50.328;8.542;2022-07-22T11:19:28;98716.31;;;30.77;33.34
69971;BME280;57301;50.328;8.542;2022-07-22T11:21:57;98721.00;;;30.62;33.33
69971;BME280;57301;50.328;8.542;2022-07-22T11:24:25;98714.09;;;31.49;31.88
69971;BME280;57301;50.328;8.542;2022-07-22T11:26:54;98719.00;;;31.58;31.62
69971;BME280;57301;50.328;8.542;2022-07-22T11:29:30;98718.94;;;31.68;32.11
69971;BME280;57301;50.328;8.542;2022-07-22T11:32:02;98707.03;;;29.97;34.00
69971;BME280;57301;50.328;8.542;2022-07-22T11:34:29;98714.63;;;30.87;33.39
69971;BME280;57301;50.328;8.542;2022-07-22T11:36:56;98706.19;;;30.32;34.97
69971;BME280;57301;50.328;8.542;2022-07-22T11:39:26;98709.25;;;31.21;33.20
69971;BME280;57301;50.328;8.542;2022-07-22T11:41:55;98708.13;;;30.32;35.29
69971;BME280;57301;50.328;8.542;2022-07-22T11:44:28;98700.69;;;31.22;32.77
69971;BME280;57301;50.328;8.542;2022-07-22T11:46:55;98696.78;;;31.44;32.22
69971;BME280;57301;50.328;8.542;2022-07-22T11:49:29;98689.28;;;31.49;34.57
69971;BME280;57301;50.328;8.542;2022-07-22T11:51:57;98689.06;;;30.66;33.79
69971;BME280;57301;50.328;8.542;2022-07-22T11:54:23;98684.72;;;29.53;35.64
69971;BME280;57301;50.328;8.542;2022-07-22T11:56:50;98679.63;;;28.51;37.25
69971;BME280;57301;50.328;8.542;2022-07-22T11:59:22;98682.16;;;30.84;34.61
69971;BME280;57301;50.328;8.542;2022-07-22T12:01:49;98681.19;;;30.08;35.47
69971;BME280;57301;50.328;8.542;2022-07-22T12:04:21;98682.22;;;30.53;35.40
69971;BME280;57301;50.328;8.542;2022-07-22T12:06:49;98671.22;;;30.43;33.90
69971;BME280;57301;50.328;8.542;2022-07-22T12:09:28;98676.31;;;31.50;32.85
69971;BME280;57301;50.328;8.542;2022-07-22T12:11:56;98672.81;;;31.39;32.75
69971;BME280;57301;50.328;8.542;2022-07-22T12:14:30;98681.84;;;31.89;33.76
69971;BME280;57301;50.328;8.542;2022-07-22T12:17:00;98669.63;;;32.00;32.41
69971;BME280;57301;50.328;8.542;2022-07-22T12:19:29;98673.22;;;31.12;32.79
69971;BME280;57301;50.328;8.542;2022-07-22T12:22:04;98678.59;;;30.73;32.45
69971;BME280;57301;50.328;8.542;2022-07-22T12:24:34;98669.28;;;31.28;33.06
69971;BME280;57301;50.328;8.542;2022-07-22T12:32:04;98662.66;;;31.29;32.43
69971;BME280;57301;50.328;8.542;2022-07-22T12:34:37;98666.56;;;32.31;31.34
69971;BME280;57301;50.328;8.542;2022-07-22T12:37:24;98656.66;;;32.78;30.94
69971;BME280;57301;50.328;8.542;2022-07-22T12:40:08;98655.78;;;33.25;32.18
69971;BME280;57301;50.328;8.542;2022-07-22T12:42:38;98653.63;;;32.26;29.95
69971;BME280;57301;50.328;8.542;2022-07-22T12:45:16;98648.69;;;33.19;31.18
69971;BME280;57301;50.328;8.542;2022-07-22T12:50:32;98640.38;;;33.76;28.46
69971;BME280;57301;50.328;8.542;2022-07-22T12:53:00;98635.00;;;33.84;30.20
69971;BME280;57301;50.328;8.542;2022-07-22T12:55:56;98636.69;;;33.48;30.08
69971;BME280;57301;50.328;8.542;2022-07-22T12:58:25;98628.91;;;31.87;30.53
69971;BME280;57301;50.328;8.542;2022-07-22T13:00:55;98619.28;;;33.47;30.35
69971;BME280;57301;50.328;8.542;2022-07-22T13:03:22;98628.25;;;34.23;28.29
69971;BME280;57301;50.328;8.542;2022-07-22T13:05:55;98622.44;;;35.07;27.81
69971;BME280;57301;50.328;8.542;2022-07-22T13:08:22;98612.91;;;34.44;29.17
69971;BME280;57301;50.328;8.542;2022-07-22T13:10:51;98613.56;;;35.55;27.25
69971;BME280;57301;50.328;8.542;2022-07-22T13:13:19;98617.53;;;35.63;27.01
69971;BME280;57301;50.328;8.542;2022-07-22T13:15:46;98617.28;;;35.73;26.13
69971;BME280;57301;50.328;8.542;2022-07-22T13:18:13;98617.47;;;35.76;26.38
69971;BME280;57301;50.328;8.542;2022-07-22T13:20:40;98614.06;;;35.79;25.86
69971;BME280;57301;50.328;8.542;2022-07-22T13:23:06;98619.28;;;35.59;26.18
69971;BME280;57301;50.328;8.542;2022-07-22T13:25:34;98609.22;;;35.26;25.59
69971;BME280;57301;50.328;8.542;2022-07-22T13:28:00;98609.97;;;35.77;27.19